< < Back
Terminal Aerodrome Forecast


Current Version              Previous Versions:   1  2  3  4  5  6  7  8  9  

Terminal Aerodrome Forecast

411
FTUS42 KGSP 252320
TAFCLT
TAF
KCLT 252320Z 2600/2624 21008KT P6SM FEW060 SCT250
     FM260200 20005KT P6SM FEW250
     FM261500 22004KT P6SM SCT060
     FM262100 21007KT P6SM VCSH BKN060=

Latest METAR

409
SAUS70 KWBC 260800 RRD
MTRCLT
METAR KCLT 260752Z 23005KT 10SM BKN250 26/20 A3002 RMK AO2 SLP153
T02610200


USA.gov is the U.S. government's official web portal to all federal, state and local government web resources and services.